sensor_id;sensor_type;location;lat;lon;timestamp;P1;P2;P0
51320;PMS5003;38732;49.556;6.286;2022-08-24T00:01:38;4.00;4.00;3.00
51320;PMS5003;38732;49.556;6.286;2022-08-24T00:04:06;4.50;3.75;2.75
51320;PMS5003;38732;49.556;6.286;2022-08-24T00:06:34;4.00;4.00;3.00
51320;PMS5003;38732;49.556;6.286;2022-08-24T00:09:03;3.75;3.50;2.50
51320;PMS5003;38732;49.556;6.286;2022-08-24T00:11:31;6.00;4.00;3.00
51320;PMS5003;38732;49.556;6.286;2022-08-24T00:13:59;4.00;3.25;2.75
51320;PMS5003;38732;49.556;6.286;2022-08-24T00:16:27;5.00;3.50;3.00
51320;PMS5003;38732;49.556;6.286;2022-08-24T00:18:56;3.75;3.75;2.00
51320;PMS5003;38732;49.556;6.286;2022-08-24T00:21:24;6.00;4.00;1.75
51320;PMS5003;38732;49.556;6.286;2022-08-24T00:23:52;6.00;6.00;3.00
51320;PMS5003;38732;49.556;6.286;2022-08-24T00:26:20;4.00;4.00;3.00
51320;PMS5003;38732;49.556;6.286;2022-08-24T00:28:49;3.00;3.00;2.00
51320;PMS5003;38732;49.556;6.286;2022-08-24T00:31:17;3.00;3.00;2.25
51320;PMS5003;38732;49.556;6.286;2022-08-24T00:33:45;3.00;3.00;2.00
51320;PMS5003;38732;49.556;6.286;2022-08-24T00:36:14;3.50;3.50;2.00
51320;PMS5003;38732;49.556;6.286;2022-08-24T00:38:42;4.50;4.50;3.00
51320;PMS5003;38732;49.556;6.286;2022-08-24T00:41:12;5.00;5.00;3.00
51320;PMS5003;38732;49.556;6.286;2022-08-24T00:43:51;4.20;4.20;2.00
51320;PMS5003;38732;49.556;6.286;2022-08-24T00:46:44;6.20;6.20;4.20
51320;PMS5003;38732;49.556;6.286;2022-08-24T00:49:35;4.20;3.60;2.60
51320;PMS5003;38732;49.556;6.286;2022-08-24T00:52:17;7.40;5.20;3.00
51320;PMS5003;38732;49.556;6.286;2022-08-24T00:55:12;5.40;3.60;2.20
51320;PMS5003;38732;49.556;6.286;2022-08-24T00:57:41;4.20;4.20;3.00
51320;PMS5003;38732;49.556;6.286;2022-08-24T01:00:15;3.40;3.00;2.20
51320;PMS5003;38732;49.556;6.286;2022-08-24T01:02:48;4.40;3.60;2.80
51320;PMS5003;38732;49.556;6.286;2022-08-24T01:05:20;3.00;3.00;2.00
51320;PMS5003;38732;49.556;6.286;2022-08-24T01:07:48;3.00;3.00;2.25
51320;PMS5003;38732;49.556;6.286;2022-08-24T01:10:18;6.00;5.00;2.00
51320;PMS5003;38732;49.556;6.286;2022-08-24T01:12:51;2.00;2.00;2.00
51320;PMS5003;38732;49.556;6.286;2022-08-24T01:15:22;3.00;3.00;1.80
51320;PMS5003;38732;49.556;6.286;2022-08-24T01:17:50;3.00;3.00;2.00
51320;PMS5003;38732;49.556;6.286;2022-08-24T01:20:19;5.00;5.00;3.00
51320;PMS5003;38732;49.556;6.286;2022-08-24T01:25:34;4.80;2.80;2.00
51320;PMS5003;38732;49.556;6.286;2022-08-24T01:28:06;3.00;3.00;2.00
51320;PMS5003;38732;49.556;6.286;2022-08-24T01:30:38;3.00;3.00;2.00
51320;PMS5003;38732;49.556;6.286;2022-08-24T01:33:07;3.00;3.00;2.00
51320;PMS5003;38732;49.556;6.286;2022-08-24T01:35:38;4.80;4.80;2.00
51320;PMS5003;38732;49.556;6.286;2022-08-24T01:38:08;3.00;3.00;2.00
51320;PMS5003;38732;49.556;6.286;2022-08-24T01:40:39;4.00;4.00;3.00
51320;PMS5003;38732;49.556;6.286;2022-08-24T01:43:13;4.00;4.00;2.80
51320;PMS5003;38732;49.556;6.286;2022-08-24T01:45:41;3.00;3.00;2.75
51320;PMS5003;38732;49.556;6.286;2022-08-24T01:48:11;6.40;5.00;4.00
51320;PMS5003;38732;49.556;6.286;2022-08-24T01:50:39;4.00;4.00;3.00
51320;PMS5003;38732;49.556;6.286;2022-08-24T01:53:08;4.75;4.75;3.00
51320;PMS5003;38732;49.556;6.286;2022-08-24T01:55:38;4.50;4.50;3.75
51320;PMS5003;38732;49.556;6.286;2022-08-24T01:58:07;5.00;4.00;3.00
51320;PMS5003;38732;49.556;6.286;2022-08-24T02:00:35;5.00;5.00;4.00
51320;PMS5003;38732;49.556;6.286;2022-08-24T02:03:04;4.25;3.75;2.50
51320;PMS5003;38732;49.556;6.286;2022-08-24T02:05:32;5.75;4.75;3.00
51320;PMS5003;38732;49.556;6.286;2022-08-24T02:08:01;3.00;3.00;2.50
51320;PMS5003;38732;49.556;6.286;2022-08-24T02:10:30;6.00;5.00;3.20
51320;PMS5003;38732;49.556;6.286;2022-08-24T02:12:58;5.50;5.50;3.75
51320;PMS5003;38732;49.556;6.286;2022-08-24T02:15:28;6.00;6.00;4.00
51320;PMS5003;38732;49.556;6.286;2022-08-24T02:17:58;4.00;4.00;3.00
51320;PMS5003;38732;49.556;6.286;2022-08-24T02:20:27;5.20;5.20;4.00
51320;PMS5003;38732;49.556;6.286;2022-08-24T02:22:56;5.25;5.25;3.50
51320;PMS5003;38732;49.556;6.286;2022-08-24T02:25:24;5.00;4.00;3.00
51320;PMS5003;38732;49.556;6.286;2022-08-24T02:27:53;4.00;4.00;3.00
51320;PMS5003;38732;49.556;6.286;2022-08-24T02:30:21;4.50;4.00;3.00
51320;PMS5003;38732;49.556;6.286;2022-08-24T02:32:49;4.00;4.00;3.25
51320;PMS5003;38732;49.556;6.286;2022-08-24T02:35:18;6.50;5.25;3.00
51320;PMS5003;38732;49.556;6.286;2022-08-24T02:37:46;2.75;2.75;1.50
51320;PMS5003;38732;49.556;6.286;2022-08-24T02:40:15;5.00;5.00;3.00
51320;PMS5003;38732;49.556;6.286;2022-08-24T02:42:43;5.00;4.75;3.75
51320;PMS5003;38732;49.556;6.286;2022-08-24T02:45:11;4.25;4.00;3.00
51320;PMS5003;38732;49.556;6.286;2022-08-24T02:47:40;4.00;4.00;2.75
51320;PMS5003;38732;49.556;6.286;2022-08-24T02:50:09;5.25;4.00;3.00
51320;PMS5003;38732;49.556;6.286;2022-08-24T02:52:39;4.00;4.00;3.20
51320;PMS5003;38732;49.556;6.286;2022-08-24T02:55:10;3.60;2.00;2.00
51320;PMS5003;38732;49.556;6.286;2022-08-24T02:57:41;4.80;4.20;3.00
51320;PMS5003;38732;49.556;6.286;2022-08-24T03:00:10;3.50;3.50;3.00
51320;PMS5003;38732;49.556;6.286;2022-08-24T03:02:40;4.80;4.00;3.00
51320;PMS5003;38732;49.556;6.286;2022-08-24T03:05:09;4.00;4.00;3.00
51320;PMS5003;38732;49.556;6.286;2022-08-24T03:07:37;5.50;5.50;3.00
51320;PMS5003;38732;49.556;6.286;2022-08-24T03:10:05;4.00;4.00;3.00
51320;PMS5003;38732;49.556;6.286;2022-08-24T03:12:34;5.00;5.00;3.75
51320;PMS5003;38732;49.556;6.286;2022-08-24T03:15:03;5.00;5.00;3.75
51320;PMS5003;38732;49.556;6.286;2022-08-24T03:17:33;5.00;5.00;4.00
51320;PMS5003;38732;49.556;6.286;2022-08-24T03:20:03;6.00;5.00;4.00
51320;PMS5003;38732;49.556;6.286;2022-08-24T03:22:33;3.20;3.20;2.80
51320;PMS5003;38732;49.556;6.286;2022-08-24T03:25:01;4.00;4.00;3.50
51320;PMS5003;38732;49.556;6.286;2022-08-24T03:27:30;5.00;5.00;4.00
51320;PMS5003;38732;49.556;6.286;2022-08-24T03:29:58;5.00;5.00;3.75
51320;PMS5003;38732;49.556;6.286;2022-08-24T03:32:27;6.00;6.00;3.50
51320;PMS5003;38732;49.556;6.286;2022-08-24T03:34:55;5.50;5.50;4.00
51320;PMS5003;38732;49.556;6.286;2022-08-24T03:37:23;7.50;5.00;3.00
51320;PMS5003;38732;49.556;6.286;2022-08-24T03:39:51;4.50;4.50;3.25
51320;PMS5003;38732;49.556;6.286;2022-08-24T03:42:20;5.00;5.00;3.25
51320;PMS5003;38732;49.556;6.286;2022-08-24T03:44:48;4.50;4.50;3.50
51320;PMS5003;38732;49.556;6.286;2022-08-24T03:47:16;7.00;5.25;4.00
51320;PMS5003;38732;49.556;6.286;2022-08-24T03:49:44;4.00;4.00;3.00
51320;PMS5003;38732;49.556;6.286;2022-08-24T03:52:13;4.25;4.25;3.00
51320;PMS5003;38732;49.556;6.286;2022-08-24T03:54:41;5.00;5.00;4.00
51320;PMS5003;38732;49.556;6.286;2022-08-24T03:57:09;5.50;5.00;3.00
51320;PMS5003;38732;49.556;6.286;2022-08-24T03:59:38;7.50;6.00;4.00
51320;PMS5003;38732;49.556;6.286;2022-08-24T04:02:06;4.00;4.00;3.25
51320;PMS5003;38732;49.556;6.286;2022-08-24T04:04:34;7.00;4.75;4.00
51320;PMS5003;38732;49.556;6.286;2022-08-24T04:07:03;5.00;5.00;4.00
51320;PMS5003;38732;49.556;6.286;2022-08-24T04:09:31;6.00;5.00;3.00
51320;PMS5003;38732;49.556;6.286;2022-08-24T04:11:59;5.50;5.00;3.25
51320;PMS5003;38732;49.556;6.286;2022-08-24T04:14:28;3.00;3.00;2.00
51320;PMS5003;38732;49.556;6.286;2022-08-24T04:16:56;4.00;4.00;3.00
51320;PMS5003;38732;49.556;6.286;2022-08-24T04:19:25;10.00;6.50;4.25
51320;PMS5003;38732;49.556;6.286;2022-08-24T04:21:54;6.60;5.40;3.80
51320;PMS5003;38732;49.556;6.286;2022-08-24T04:24:23;6.00;6.00;4.00
51320;PMS5003;38732;49.556;6.286;2022-08-24T04:26:52;7.00;5.80;4.60
51320;PMS5003;38732;49.556;6.286;2022-08-24T04:29:21;5.00;5.00;3.50
51320;PMS5003;38732;49.556;6.286;2022-08-24T04:31:49;6.50;6.50;3.00
51320;PMS5003;38732;49.556;6.286;2022-08-24T04:34:17;5.00;5.00;4.00
51320;PMS5003;38732;49.556;6.286;2022-08-24T04:36:45;5.50;5.50;3.00
51320;PMS5003;38732;49.556;6.286;2022-08-24T04:39:14;5.00;4.00;2.25
51320;PMS5003;38732;49.556;6.286;2022-08-24T04:41:42;3.50;3.50;2.25
51320;PMS5003;38732;49.556;6.286;2022-08-24T04:44:10;4.25;4.25;3.75
51320;PMS5003;38732;49.556;6.286;2022-08-24T04:46:39;5.50;5.50;4.00
51320;PMS5003;38732;49.556;6.286;2022-08-24T04:49:07;6.25;6.00;4.25
51320;PMS5003;38732;49.556;6.286;2022-08-24T04:51:36;4.75;4.75;3.00
51320;PMS5003;38732;49.556;6.286;2022-08-24T04:54:05;5.00;5.00;3.60
51320;PMS5003;38732;49.556;6.286;2022-08-24T04:56:34;9.40;8.60;5.00
51320;PMS5003;38732;49.556;6.286;2022-08-24T04:59:03;7.60;5.00;3.00
51320;PMS5003;38732;49.556;6.286;2022-08-24T05:01:32;5.80;5.80;4.00
51320;PMS5003;38732;49.556;6.286;2022-08-24T05:04:01;6.00;6.00;4.00
51320;PMS5003;38732;49.556;6.286;2022-08-24T05:06:31;5.40;5.40;4.00
51320;PMS5003;38732;49.556;6.286;2022-08-24T05:09:00;6.00;5.00;3.00
51320;PMS5003;38732;49.556;6.286;2022-08-24T05:11:30;6.20;6.20;4.60
51320;PMS5003;38732;49.556;6.286;2022-08-24T05:13:58;5.75;5.75;4.00
51320;PMS5003;38732;49.556;6.286;2022-08-24T05:16:26;7.50;5.50;3.50
51320;PMS5003;38732;49.556;6.286;2022-08-24T05:18:55;5.00;5.00;4.00
51320;PMS5003;38732;49.556;6.286;2022-08-24T05:21:23;8.00;5.00;4.00
51320;PMS5003;38732;49.556;6.286;2022-08-24T05:23:51;5.25;4.00;3.00
51320;PMS5003;38732;49.556;6.286;2022-08-24T05:26:21;4.25;4.00;3.00
51320;PMS5003;38732;49.556;6.286;2022-08-24T05:28:57;6.60;6.60;3.60
51320;PMS5003;38732;49.556;6.286;2022-08-24T05:31:29;5.40;4.80;3.80
51320;PMS5003;38732;49.556;6.286;2022-08-24T05:33:59;7.60;5.00;3.80
51320;PMS5003;38732;49.556;6.286;2022-08-24T05:36:31;8.60;7.20;4.60
51320;PMS5003;38732;49.556;6.286;2022-08-24T05:39:02;10.40;9.20;7.00
51320;PMS5003;38732;49.556;6.286;2022-08-24T05:41:32;8.80;6.00;4.20
51320;PMS5003;38732;49.556;6.286;2022-08-24T05:44:01;7.00;7.00;4.75
51320;PMS5003;38732;49.556;6.286;2022-08-24T05:46:30;7.40;6.20;5.00
51320;PMS5003;38732;49.556;6.286;2022-08-24T05:48:58;10.50;8.50;5.50
51320;PMS5003;38732;49.556;6.286;2022-08-24T05:51:27;11.00;8.75;6.25
51320;PMS5003;38732;49.556;6.286;2022-08-24T05:53:56;10.00;8.40;4.40
51320;PMS5003;38732;49.556;6.286;2022-08-24T05:56:25;9.40;9.40;6.00
51320;PMS5003;38732;49.556;6.286;2022-08-24T05:58:53;8.25;8.25;5.00
51320;PMS5003;38732;49.556;6.286;2022-08-24T06:01:23;7.50;7.25;5.00
51320;PMS5003;38732;49.556;6.286;2022-08-24T06:03:53;7.00;7.00;5.00
51320;PMS5003;38732;49.556;6.286;2022-08-24T06:06:22;6.20;5.00;4.00
51320;PMS5003;38732;49.556;6.286;2022-08-24T06:08:52;8.75;8.75;5.00
51320;PMS5003;38732;49.556;6.286;2022-08-24T06:11:23;10.20;10.20;8.00
51320;PMS5003;38732;49.556;6.286;2022-08-24T06:13:57;7.00;7.00;5.80
51320;PMS5003;38732;49.556;6.286;2022-08-24T06:16:32;9.40;9.00;5.20
51320;PMS5003;38732;49.556;6.286;2022-08-24T06:19:05;9.80;9.20;5.80
51320;PMS5003;38732;49.556;6.286;2022-08-24T06:21:35;10.00;8.80;5.00
51320;PMS5003;38732;49.556;6.286;2022-08-24T06:24:04;7.25;7.25;5.00
51320;PMS5003;38732;49.556;6.286;2022-08-24T06:26:33;12.00;10.40;6.40
51320;PMS5003;38732;49.556;6.286;2022-08-24T06:29:03;9.50;8.25;6.00
51320;PMS5003;38732;49.556;6.286;2022-08-24T06:31:36;10.00;10.00;4.60
51320;PMS5003;38732;49.556;6.286;2022-08-24T06:34:06;8.20;7.00;5.00
51320;PMS5003;38732;49.556;6.286;2022-08-24T06:36:39;9.20;8.00;5.80
51320;PMS5003;38732;49.556;6.286;2022-08-24T06:39:08;10.00;9.25;6.00
51320;PMS5003;38732;49.556;6.286;2022-08-24T06:41:37;12.00;10.00;6.00
51320;PMS5003;38732;49.556;6.286;2022-08-24T06:44:06;10.75;9.00;6.25
51320;PMS5003;38732;49.556;6.286;2022-08-24T06:46:35;8.80;8.80;7.00
51320;PMS5003;38732;49.556;6.286;2022-08-24T06:49:03;9.25;8.25;6.50
51320;PMS5003;38732;49.556;6.286;2022-08-24T06:51:32;5.50;5.25;4.25
51320;PMS5003;38732;49.556;6.286;2022-08-24T06:54:00;12.00;8.00;5.50
51320;PMS5003;38732;49.556;6.286;2022-08-24T06:56:28;8.50;8.50;6.75
51320;PMS5003;38732;49.556;6.286;2022-08-24T06:58:58;7.00;7.00;6.00
51320;PMS5003;38732;49.556;6.286;2022-08-24T07:01:27;7.40;7.40;6.00
51320;PMS5003;38732;49.556;6.286;2022-08-24T07:03:55;7.25;5.75;5.00
51320;PMS5003;38732;49.556;6.286;2022-08-24T07:06:24;6.25;6.25;4.25
51320;PMS5003;38732;49.556;6.286;2022-08-24T07:08:52;7.75;7.00;5.25
51320;PMS5003;38732;49.556;6.286;2022-08-24T07:11:21;7.50;7.00;5.00
51320;PMS5003;38732;49.556;6.286;2022-08-24T07:13:49;8.50;6.50;5.00
51320;PMS5003;38732;49.556;6.286;2022-08-24T07:16:18;6.00;6.00;5.00
51320;PMS5003;38732;49.556;6.286;2022-08-24T07:18:47;6.00;6.00;4.00
51320;PMS5003;38732;49.556;6.286;2022-08-24T07:21:16;9.75;6.00;5.00
51320;PMS5003;38732;49.556;6.286;2022-08-24T07:23:46;10.40;8.60;5.20
51320;PMS5003;38732;49.556;6.286;2022-08-24T07:26:17;8.00;8.00;4.80
51320;PMS5003;38732;49.556;6.286;2022-08-24T07:28:46;7.60;7.40;5.60
51320;PMS5003;38732;49.556;6.286;2022-08-24T07:31:14;9.75;8.00;6.50
51320;PMS5003;38732;49.556;6.286;2022-08-24T07:33:43;8.75;7.00;5.25
51320;PMS5003;38732;49.556;6.286;2022-08-24T07:36:11;8.25;7.00;6.00
51320;PMS5003;38732;49.556;6.286;2022-08-24T07:38:40;7.00;6.75;5.00
51320;PMS5003;38732;49.556;6.286;2022-08-24T07:41:08;9.00;8.00;5.50
51320;PMS5003;38732;49.556;6.286;2022-08-24T07:43:36;6.75;6.75;4.75
51320;PMS5003;38732;49.556;6.286;2022-08-24T07:46:04;9.00;7.50;5.75
51320;PMS5003;38732;49.556;6.286;2022-08-24T07:48:33;6.00;6.00;5.00
51320;PMS5003;38732;49.556;6.286;2022-08-24T07:51:05;8.50;7.25;5.75
51320;PMS5003;38732;49.556;6.286;2022-08-24T07:53:37;4.20;4.20;3.20
51320;PMS5003;38732;49.556;6.286;2022-08-24T07:56:05;5.75;5.75;4.00
51320;PMS5003;38732;49.556;6.286;2022-08-24T07:58:35;7.00;7.00;5.00
51320;PMS5003;38732;49.556;6.286;2022-08-24T08:01:04;8.00;6.40;4.80
51320;PMS5003;38732;49.556;6.286;2022-08-24T08:03:32;10.00;8.60;6.00
51320;PMS5003;38732;49.556;6.286;2022-08-24T08:06:02;9.00;8.25;5.75
51320;PMS5003;38732;49.556;6.286;2022-08-24T08:08:34;9.00;8.00;5.00
51320;PMS5003;38732;49.556;6.286;2022-08-24T08:11:04;5.00;5.00;4.40
51320;PMS5003;38732;49.556;6.286;2022-08-24T08:13:33;7.75;7.75;5.00
51320;PMS5003;38732;49.556;6.286;2022-08-24T08:16:01;6.75;6.75;4.50
51320;PMS5003;38732;49.556;6.286;2022-08-24T08:18:31;6.00;6.00;5.00
51320;PMS5003;38732;49.556;6.286;2022-08-24T08:21:01;6.00;6.00;5.00
51320;PMS5003;38732;49.556;6.286;2022-08-24T08:23:30;8.20;6.80;6.00
51320;PMS5003;38732;49.556;6.286;2022-08-24T08:25:58;8.50;7.00;5.00
51320;PMS5003;38732;49.556;6.286;2022-08-24T08:28:28;7.00;7.00;5.00
51320;PMS5003;38732;49.556;6.286;2022-08-24T08:30:58;5.80;5.80;3.80
51320;PMS5003;38732;49.556;6.286;2022-08-24T08:33:27;9.80;8.40;5.20
51320;PMS5003;38732;49.556;6.286;2022-08-24T08:36:06;7.75;7.75;5.50
51320;PMS5003;38732;49.556;6.286;2022-08-24T08:38:38;7.60;7.60;5.20
51320;PMS5003;38732;49.556;6.286;2022-08-24T08:43:47;9.00;9.00;6.00
51320;PMS5003;38732;49.556;6.286;2022-08-24T09:23:47;7.80;7.80;6.80
51320;PMS5003;38732;49.556;6.286;2022-08-24T09:29:02;10.00;10.00;6.40
51320;PMS5003;38732;49.556;6.286;2022-08-24T09:35:00;11.80;11.80;7.60
51320;PMS5003;38732;49.556;6.286;2022-08-24T09:40:26;7.80;7.80;6.00
51320;PMS5003;38732;49.556;6.286;2022-08-24T09:57:24;12.00;11.80;8.60
51320;PMS5003;38732;49.556;6.286;2022-08-24T10:00:16;9.20;8.60;6.60
51320;PMS5003;38732;49.556;6.286;2022-08-24T10:08:42;9.60;9.60;8.20
51320;PMS5003;38732;49.556;6.286;2022-08-24T10:28:02;9.40;9.40;7.80
51320;PMS5003;38732;49.556;6.286;2022-08-24T10:31:17;8.00;8.00;7.00
51320;PMS5003;38732;49.556;6.286;2022-08-24T10:42:51;7.00;7.00;5.00
51320;PMS5003;38732;49.556;6.286;2022-08-24T10:53:52;10.60;9.80;7.60
51320;PMS5003;38732;49.556;6.286;2022-08-24T10:56:47;11.80;11.20;9.20
51320;PMS5003;38732;49.556;6.286;2022-08-24T10:59:25;13.40;11.80;9.20
51320;PMS5003;38732;49.556;6.286;2022-08-24T11:02:34;9.00;9.00;8.00
51320;PMS5003;38732;49.556;6.286;2022-08-24T11:04:56;10.00;10.00;8.60
51320;PMS5003;38732;49.556;6.286;2022-08-24T11:07:29;12.40;10.40;8.20
51320;PMS5003;38732;49.556;6.286;2022-08-24T11:09:59;10.50;10.50;8.00
51320;PMS5003;38732;49.556;6.286;2022-08-24T11:12:38;9.40;9.00;7.00
51320;PMS5003;38732;49.556;6.286;2022-08-24T11:15:10;10.40;9.40;7.60
51320;PMS5003;38732;49.556;6.286;2022-08-24T11:18:07;13.20;12.40;8.20
51320;PMS5003;38732;49.556;6.286;2022-08-24T11:20:38;10.60;9.40;7.60
51320;PMS5003;38732;49.556;6.286;2022-08-24T11:23:22;11.40;10.20;7.80
51320;PMS5003;38732;49.556;6.286;2022-08-24T11:31:41;9.60;9.60;8.00
51320;PMS5003;38732;49.556;6.286;2022-08-24T11:34:08;8.60;8.60;6.60
51320;PMS5003;38732;49.556;6.286;2022-08-24T11:36:41;10.00;10.00;8.00
51320;PMS5003;38732;49.556;6.286;2022-08-24T11:39:12;11.00;9.50;7.75
51320;PMS5003;38732;49.556;6.286;2022-08-24T11:50:19;6.80;6.80;5.80
51320;PMS5003;38732;49.556;6.286;2022-08-24T11:58:17;9.40;9.40;8.40
51320;PMS5003;38732;49.556;6.286;2022-08-24T12:01:00;8.80;8.80;6.20
51320;PMS5003;38732;49.556;6.286;2022-08-24T12:06:52;10.80;10.80;8.00
51320;PMS5003;38732;49.556;6.286;2022-08-24T12:18:04;9.40;9.40;8.00
51320;PMS5003;38732;49.556;6.286;2022-08-24T12:20:40;10.40;10.40;8.00
51320;PMS5003;38732;49.556;6.286;2022-08-24T12:23:23;9.00;9.00;7.20
51320;PMS5003;38732;49.556;6.286;2022-08-24T12:26:04;8.60;8.60;6.60
51320;PMS5003;38732;49.556;6.286;2022-08-24T12:31:22;7.60;7.20;5.80
51320;PMS5003;38732;49.556;6.286;2022-08-24T12:34:04;11.60;10.00;6.80
51320;PMS5003;38732;49.556;6.286;2022-08-24T12:36:40;12.80;10.00;6.60
51320;PMS5003;38732;49.556;6.286;2022-08-24T12:39:53;8.00;8.00;6.00
51320;PMS5003;38732;49.556;6.286;2022-08-24T12:42:35;11.00;9.00;6.00
51320;PMS5003;38732;49.556;6.286;2022-08-24T12:45:11;9.00;8.60;7.00
51320;PMS5003;38732;49.556;6.286;2022-08-24T12:50:15;8.40;8.40;7.00
51320;PMS5003;38732;49.556;6.286;2022-08-24T12:55:37;8.40;7.80;5.40
51320;PMS5003;38732;49.556;6.286;2022-08-24T13:00:47;9.60;7.40;6.20
51320;PMS5003;38732;49.556;6.286;2022-08-24T13:03:30;9.20;9.20;6.60
51320;PMS5003;38732;49.556;6.286;2022-08-24T13:06:04;7.00;7.00;6.20
51320;PMS5003;38732;49.556;6.286;2022-08-24T13:09:04;7.40;7.40;6.00
51320;PMS5003;38732;49.556;6.286;2022-08-24T13:11:36;10.20;10.20;8.80
51320;PMS5003;38732;49.556;6.286;2022-08-24T13:16:44;9.40;9.00;8.00
51320;PMS5003;38732;49.556;6.286;2022-08-24T13:19:16;11.40;9.60;8.40
51320;PMS5003;38732;49.556;6.286;2022-08-24T13:21:46;8.20;8.20;7.00
51320;PMS5003;38732;49.556;6.286;2022-08-24T13:26:57;9.20;9.20;8.00
51320;PMS5003;38732;49.556;6.286;2022-08-24T13:29:48;8.60;8.60;6.40
51320;PMS5003;38732;49.556;6.286;2022-08-24T13:32:28;10.00;10.00;8.00
51320;PMS5003;38732;49.556;6.286;2022-08-24T13:34:59;9.00;9.00;7.20
51320;PMS5003;38732;49.556;6.286;2022-08-24T13:38:21;10.00;9.40;7.20
51320;PMS5003;38732;49.556;6.286;2022-08-24T13:40:57;8.20;8.20;6.60
51320;PMS5003;38732;49.556;6.286;2022-08-24T13:43:54;6.20;6.20;5.20
51320;PMS5003;38732;49.556;6.286;2022-08-24T13:49:30;8.20;8.20;7.00
51320;PMS5003;38732;49.556;6.286;2022-08-24T13:52:12;7.60;7.60;6.80
51320;PMS5003;38732;49.556;6.286;2022-08-24T13:55:06;10.00;8.40;7.00
51320;PMS5003;38732;49.556;6.286;2022-08-24T13:58:02;11.40;10.80;9.00
51320;PMS5003;38732;49.556;6.286;2022-08-24T14:00:39;8.80;8.80;7.40
51320;PMS5003;38732;49.556;6.286;2022-08-24T14:08:34;10.00;10.00;7.00
51320;PMS5003;38732;49.556;6.286;2022-08-24T14:11:16;8.20;8.20;7.00
51320;PMS5003;38732;49.556;6.286;2022-08-24T14:25:24;7.60;7.60;6.00
51320;PMS5003;38732;49.556;6.286;2022-08-24T14:46:35;11.40;11.20;9.60
51320;PMS5003;38732;49.556;6.286;2022-08-24T14:49:23;9.00;9.00;7.80
51320;PMS5003;38732;49.556;6.286;2022-08-24T14:54:50;9.00;9.00;8.00
51320;PMS5003;38732;49.556;6.286;2022-08-24T14:57:41;12.00;10.40;8.40
51320;PMS5003;38732;49.556;6.286;2022-08-24T15:09:24;11.00;11.00;9.00
51320;PMS5003;38732;49.556;6.286;2022-08-24T15:11:58;9.80;9.80;8.80
51320;PMS5003;38732;49.556;6.286;2022-08-24T15:14:40;10.40;8.00;6.20
51320;PMS5003;38732;49.556;6.286;2022-08-24T15:17:20;13.00;11.00;9.00
51320;PMS5003;38732;49.556;6.286;2022-08-24T15:25:41;10.20;10.20;8.40
51320;PMS5003;38732;49.556;6.286;2022-08-24T15:28:28;10.20;9.00;8.00
51320;PMS5003;38732;49.556;6.286;2022-08-24T15:30:59;8.00;8.00;6.60
51320;PMS5003;38732;49.556;6.286;2022-08-24T15:33:32;10.60;10.00;8.60
51320;PMS5003;38732;49.556;6.286;2022-08-24T15:36:12;10.00;10.00;9.00
51320;PMS5003;38732;49.556;6.286;2022-08-24T15:38:43;9.60;9.60;8.00
51320;PMS5003;38732;49.556;6.286;2022-08-24T15:44:00;10.20;10.20;8.40
51320;PMS5003;38732;49.556;6.286;2022-08-24T15:46:40;9.00;8.00;7.40
51320;PMS5003;38732;49.556;6.286;2022-08-24T15:51:48;10.80;10.80;9.20
51320;PMS5003;38732;49.556;6.286;2022-08-24T15:56:51;10.40;10.40;8.00
51320;PMS5003;38732;49.556;6.286;2022-08-24T15:59:27;10.00;10.00;9.00
51320;PMS5003;38732;49.556;6.286;2022-08-24T16:04:38;11.40;10.40;8.20
51320;PMS5003;38732;49.556;6.286;2022-08-24T16:07:16;8.20;8.00;6.00
51320;PMS5003;38732;49.556;6.286;2022-08-24T16:10:04;12.60;9.60;7.00
51320;PMS5003;38732;49.556;6.286;2022-08-24T16:12:35;9.40;9.40;7.80
51320;PMS5003;38732;49.556;6.286;2022-08-24T16:17:46;10.40;9.80;8.60
51320;PMS5003;38732;49.556;6.286;2022-08-24T16:22:54;10.00;10.00;8.00
51320;PMS5003;38732;49.556;6.286;2022-08-24T16:27:57;8.00;8.00;6.40
51320;PMS5003;38732;49.556;6.286;2022-08-24T16:30:44;12.20;10.60;8.20
51320;PMS5003;38732;49.556;6.286;2022-08-24T16:35:59;13.00;11.40;9.00
51320;PMS5003;38732;49.556;6.286;2022-08-24T16:38:30;7.00;7.00;5.00
51320;PMS5003;38732;49.556;6.286;2022-08-24T16:41:01;10.80;10.80;8.80
51320;PMS5003;38732;49.556;6.286;2022-08-24T16:43:36;9.20;9.20;7.20
51320;PMS5003;38732;49.556;6.286;2022-08-24T16:46:09;11.60;11.20;9.00
51320;PMS5003;38732;49.556;6.286;2022-08-24T16:48:38;11.40;11.40;9.80
51320;PMS5003;38732;49.556;6.286;2022-08-24T16:51:07;10.60;10.60;8.40
51320;PMS5003;38732;49.556;6.286;2022-08-24T16:53:35;11.25;11.25;9.00
51320;PMS5003;38732;49.556;6.286;2022-08-24T16:56:03;11.00;11.00;9.00
51320;PMS5003;38732;49.556;6.286;2022-08-24T16:58:32;10.50;9.75;8.00
51320;PMS5003;38732;49.556;6.286;2022-08-24T17:01:01;10.80;10.80;8.00
51320;PMS5003;38732;49.556;6.286;2022-08-24T17:03:29;12.25;11.25;9.00
51320;PMS5003;38732;49.556;6.286;2022-08-24T17:05:58;13.00;10.50;8.50
51320;PMS5003;38732;49.556;6.286;2022-08-24T17:08:27;11.40;11.40;9.60
51320;PMS5003;38732;49.556;6.286;2022-08-24T17:10:55;11.00;11.00;8.00
51320;PMS5003;38732;49.556;6.286;2022-08-24T17:13:23;8.50;8.50;7.00
51320;PMS5003;38732;49.556;6.286;2022-08-24T17:15:52;10.00;10.00;8.00
51320;PMS5003;38732;49.556;6.286;2022-08-24T17:18:20;9.75;9.75;8.00
51320;PMS5003;38732;49.556;6.286;2022-08-24T17:20:48;11.25;10.75;9.00
51320;PMS5003;38732;49.556;6.286;2022-08-24T17:23:16;7.50;7.50;6.50
51320;PMS5003;38732;49.556;6.286;2022-08-24T17:25:45;12.00;11.00;10.00
51320;PMS5003;38732;49.556;6.286;2022-08-24T17:28:15;12.00;11.00;9.00
51320;PMS5003;38732;49.556;6.286;2022-08-24T17:30:45;11.20;11.00;9.60
51320;PMS5003;38732;49.556;6.286;2022-08-24T17:33:13;11.25;10.50;9.00
51320;PMS5003;38732;49.556;6.286;2022-08-24T17:35:41;13.25;12.00;8.50
51320;PMS5003;38732;49.556;6.286;2022-08-24T17:38:09;10.75;10.00;8.75
51320;PMS5003;38732;49.556;6.286;2022-08-24T17:40:37;10.50;10.50;7.75
51320;PMS5003;38732;49.556;6.286;2022-08-24T17:43:06;11.50;10.50;8.50
51320;PMS5003;38732;49.556;6.286;2022-08-24T17:45:34;11.00;11.00;8.75
51320;PMS5003;38732;49.556;6.286;2022-08-24T17:48:02;10.50;10.50;8.00
51320;PMS5003;38732;49.556;6.286;2022-08-24T17:50:31;12.00;12.00;9.75
51320;PMS5003;38732;49.556;6.286;2022-08-24T17:52:59;10.50;9.75;7.75
51320;PMS5003;38732;49.556;6.286;2022-08-24T17:55:27;9.50;9.50;7.00
51320;PMS5003;38732;49.556;6.286;2022-08-24T17:57:56;8.75;8.75;7.00
51320;PMS5003;38732;49.556;6.286;2022-08-24T18:00:24;9.75;9.50;7.75
51320;PMS5003;38732;49.556;6.286;2022-08-24T18:02:53;13.00;10.75;8.00
51320;PMS5003;38732;49.556;6.286;2022-08-24T18:05:21;11.25;11.25;9.00
51320;PMS5003;38732;49.556;6.286;2022-08-24T18:07:51;11.25;9.50;8.75
51320;PMS5003;38732;49.556;6.286;2022-08-24T18:10:23;13.20;12.20;9.40
51320;PMS5003;38732;49.556;6.286;2022-08-24T18:12:54;11.20;10.40;9.40
51320;PMS5003;38732;49.556;6.286;2022-08-24T18:15:24;10.40;9.40;7.20
51320;PMS5003;38732;49.556;6.286;2022-08-24T18:17:53;12.60;11.60;7.60
51320;PMS5003;38732;49.556;6.286;2022-08-24T18:20:23;10.00;10.00;8.00
51320;PMS5003;38732;49.556;6.286;2022-08-24T18:22:53;10.80;10.80;8.00
51320;PMS5003;38732;49.556;6.286;2022-08-24T18:25:21;12.00;11.00;9.50
51320;PMS5003;38732;49.556;6.286;2022-08-24T18:27:50;12.75;12.00;10.50
51320;PMS5003;38732;49.556;6.286;2022-08-24T18:32:51;12.60;11.00;8.60
51320;PMS5003;38732;49.556;6.286;2022-08-24T18:35:20;12.75;11.00;9.00
51320;PMS5003;38732;49.556;6.286;2022-08-24T18:37:49;12.80;11.60;8.40